Terminal Aerodrome Forecast
Issued by NWS Newport/Morehead City, NC

Home | Current Version | Previous Version | Text Only | Print | Product List | Glossary On
Versions: 1 2 3 4 5 6 7 8 9 10 11 12 13 14 15 16 17 18 19 20 21 22 23 24
013
FTUS42 KMHX 040545
TAFEWN
TAF
KEWN 040545Z 0406/0506 22003KT 6SM BR VCSH SCT005 BKN015
     FM041300 00000KT P6SM VCSH BKN015
     FM041600 27007KT P6SM BKN040
     FM041800 26007KT P6SM SCT040
     FM050000 00000KT P6SM SCT250=

USA.gov is the U.S. government's official web portal to all federal, state and local government web resources and services.